createdAt,value
2023-02-05T00:01:41.760Z,103798.45
2023-02-05T00:04:11.199Z,103791.39
2023-02-05T00:06:40.510Z,103782.30
2023-02-05T00:09:10.084Z,103784.00
2023-02-05T00:11:39.480Z,103787.39
2023-02-05T00:14:08.768Z,103779.60
2023-02-05T00:16:38.728Z,103778.17
2023-02-05T00:19:08.092Z,103766.42
2023-02-05T00:21:37.340Z,103754.63
2023-02-05T00:24:06.858Z,103755.94
2023-02-05T00:26:36.132Z,103741.59
2023-02-05T00:29:06.258Z,103742.98
2023-02-05T00:31:35.631Z,103742.90
2023-02-05T00:34:05.479Z,103731.25
2023-02-05T00:36:34.781Z,103728.70
2023-02-05T00:39:04.975Z,103731.80
2023-02-05T00:41:34.236Z,103728.42
2023-02-05T00:44:03.724Z,103728.42
2023-02-05T00:46:32.974Z,103738.47
2023-02-05T00:49:02.374Z,103744.06
2023-02-05T00:51:31.625Z,103743.09
2023-02-05T00:54:01.483Z,103749.75
2023-02-05T00:56:30.730Z,103747.05
2023-02-05T00:59:00.435Z,103744.98
2023-02-05T01:01:29.792Z,103738.65
2023-02-05T01:03:59.298Z,103727.77
2023-02-05T01:06:28.579Z,103726.93
2023-02-05T01:08:58.293Z,103740.39
2023-02-05T01:11:27.531Z,103745.41
2023-02-05T01:13:56.935Z,103753.83
2023-02-05T01:16:26.274Z,103754.66
2023-02-05T01:18:56.861Z,103760.78
2023-02-05T01:21:26.345Z,103760.78
2023-02-05T01:23:56.641Z,103756.92
2023-02-05T01:26:25.961Z,103767.51
2023-02-05T01:28:55.475Z,103765.25
2023-02-05T01:31:25.863Z,103747.02
2023-02-05T01:33:55.349Z,103761.50
2023-02-05T01:36:24.580Z,103759.72
2023-02-05T01:38:54.853Z,103753.67
2023-02-05T01:41:24.333Z,103751.89
2023-02-05T01:44:14.333Z,103762.04
2023-02-05T01:46:46.350Z,103755.89
2023-02-05T01:49:19.063Z,103763.72
2023-02-05T01:51:49.275Z,103756.66
2023-02-05T01:54:19.451Z,103760.30
2023-02-05T01:56:51.826Z,103761.20
2023-02-05T01:59:25.899Z,103758.58
2023-02-05T02:01:55.599Z,103754.44
2023-02-05T02:04:40.212Z,103768.89
2023-02-05T02:07:12.043Z,103756.66
2023-02-05T02:09:43.485Z,103748.36
2023-02-05T02:12:14.575Z,103746.58
2023-02-05T02:14:46.313Z,103741.20
2023-02-05T02:17:16.009Z,103739.38
2023-02-05T02:20:03.551Z,103721.55
2023-02-05T02:22:58.729Z,103717.10
2023-02-05T02:25:34.209Z,103707.20
2023-02-05T02:28:16.190Z,103723.06
2023-02-05T02:30:48.994Z,103727.18
2023-02-05T02:33:39.622Z,103728.09
2023-02-05T02:36:14.359Z,103727.73
2023-02-05T02:39:03.183Z,103711.94
2023-02-05T02:41:35.655Z,103708.30
2023-02-05T02:44:12.579Z,103706.33
2023-02-05T02:46:45.141Z,103701.96
2023-02-05T02:49:17.840Z,103685.69
2023-02-05T02:51:48.183Z,103672.77
2023-02-05T02:54:19.636Z,103668.56
2023-02-05T02:56:50.315Z,103676.89
2023-02-05T02:59:21.935Z,103675.15
2023-02-05T03:01:56.964Z,103681.22
2023-02-05T03:04:29.657Z,103695.78
2023-02-05T03:07:04.589Z,103704.04
2023-02-05T03:09:39.907Z,103706.08
2023-02-05T03:12:09.337Z,103691.70
2023-02-05T03:14:39.187Z,103676.02
2023-02-05T03:17:08.952Z,103672.92
2023-02-05T03:19:38.236Z,103681.15
2023-02-05T03:22:07.904Z,103685.23
2023-02-05T03:24:38.088Z,103682.94
2023-02-05T03:27:07.721Z,103693.81
2023-02-05T03:29:41.404Z,103702.88
2023-02-05T03:32:35.138Z,103693.38
2023-02-05T03:35:28.882Z,103702.52
2023-02-05T03:38:09.024Z,103696.80
2023-02-05T03:40:51.404Z,103698.03
2023-02-05T03:43:39.393Z,103703.70
2023-02-05T03:46:15.977Z,103709.75
2023-02-05T03:49:07.050Z,103702.28
2023-02-05T03:51:43.009Z,103701.48
2023-02-05T03:54:43.510Z,103700.62
2023-02-05T03:57:23.640Z,103710.30
2023-02-05T03:59:54.512Z,103700.33
2023-02-05T04:02:24.491Z,103691.56
2023-02-05T04:04:55.609Z,103695.96
2023-02-05T04:07:24.977Z,103707.28
2023-02-05T04:09:54.656Z,103711.56
2023-02-05T04:12:24.532Z,103715.90
2023-02-05T04:14:54.782Z,103721.28
2023-02-05T04:17:24.144Z,103723.47
2023-02-05T04:19:53.647Z,103724.34
2023-02-05T04:22:23.021Z,103721.28
2023-02-05T04:24:53.695Z,103728.71
2023-02-05T04:27:23.166Z,103718.70
2023-02-05T04:29:53.552Z,103719.76
2023-02-05T04:32:23.689Z,103717.61
2023-02-05T04:34:53.393Z,103720.73
2023-02-05T04:37:22.802Z,103720.77
2023-02-05T04:39:52.515Z,103714.73
2023-02-05T04:42:22.134Z,103711.84
2023-02-05T04:44:52.972Z,103708.39
2023-02-05T04:47:22.438Z,103708.90
2023-02-05T04:49:51.698Z,103714.64
2023-02-05T04:52:21.268Z,103704.70
2023-02-05T04:54:50.577Z,103711.31
2023-02-05T04:57:19.810Z,103716.95
2023-02-05T04:59:49.160Z,103706.08
2023-02-05T05:02:18.869Z,103708.66
2023-02-05T05:04:48.241Z,103711.72
2023-02-05T05:07:17.691Z,103720.55
2023-02-05T05:09:46.975Z,103722.26
2023-02-05T05:12:16.385Z,103724.84
2023-02-05T05:14:45.655Z,103731.83
2023-02-05T05:17:14.958Z,103746.16
2023-02-05T05:19:44.565Z,103738.77
2023-02-05T05:22:13.793Z,103739.68
2023-02-05T05:24:43.571Z,103748.50
2023-02-05T05:27:12.776Z,103751.16
2023-02-05T05:29:42.131Z,103748.91
2023-02-05T05:32:11.398Z,103749.88
2023-02-05T05:34:40.876Z,103736.85
2023-02-05T05:37:10.109Z,103748.30
2023-02-05T05:39:57.308Z,103748.36
2023-02-05T05:42:44.481Z,103741.84
2023-02-05T05:45:13.714Z,103746.73
2023-02-05T05:47:43.080Z,103744.64
2023-02-05T05:50:12.432Z,103742.99
2023-02-05T05:52:41.875Z,103756.54
2023-02-05T05:55:11.113Z,103758.75
2023-02-05T05:57:40.362Z,103756.72
2023-02-05T06:00:11.235Z,103757.67
2023-02-05T06:02:44.821Z,103764.80
2023-02-05T06:05:14.505Z,103761.80
2023-02-05T06:07:43.839Z,103763.89
2023-02-05T06:10:13.051Z,103774.20
2023-02-05T06:12:42.316Z,103778.94
2023-02-05T06:15:12.944Z,103792.04
2023-02-05T06:17:42.410Z,103794.60
2023-02-05T06:20:12.521Z,103817.30
2023-02-05T06:22:42.393Z,103803.55
2023-02-05T06:25:11.890Z,103804.38
2023-02-05T06:27:41.271Z,103807.91
2023-02-05T06:30:11.921Z,103813.16
2023-02-05T06:32:41.588Z,103817.16
2023-02-05T06:35:11.108Z,103819.86
2023-02-05T06:37:48.074Z,103819.87
2023-02-05T06:40:12.138Z,103835.54
2023-02-05T06:42:41.663Z,103853.34
2023-02-05T06:45:11.676Z,103847.72
2023-02-05T06:47:41.167Z,103856.94
2023-02-05T06:50:10.780Z,103866.58
2023-02-05T06:52:40.055Z,103873.19
2023-02-05T06:55:09.477Z,103875.89
2023-02-05T06:57:39.005Z,103887.23
2023-02-05T07:00:09.481Z,103887.23
2023-02-05T07:02:38.926Z,103897.28
2023-02-05T07:05:08.823Z,103901.58
2023-02-05T07:07:38.429Z,103911.13
2023-02-05T07:10:09.558Z,103913.66
2023-02-05T07:12:38.906Z,103911.72
2023-02-05T07:15:08.827Z,103924.47
2023-02-05T07:17:39.639Z,103928.70
2023-02-05T07:20:09.673Z,103916.91
2023-02-05T07:22:39.122Z,103929.32
2023-02-05T07:25:09.336Z,103936.30
2023-02-05T07:27:38.798Z,103929.81
2023-02-05T07:30:09.435Z,103939.94
2023-02-05T07:32:38.730Z,103943.75
2023-02-05T07:35:08.095Z,103959.05
2023-02-05T07:37:39.475Z,103953.73
2023-02-05T07:40:10.042Z,103968.58
2023-02-05T07:42:39.340Z,103965.50
2023-02-05T07:45:10.459Z,103968.13
2023-02-05T07:47:39.853Z,103970.38
2023-02-05T07:50:09.520Z,103975.06
2023-02-05T07:52:38.794Z,103984.67
2023-02-05T07:55:08.669Z,103985.95
2023-02-05T07:57:38.331Z,103997.26
2023-02-05T08:00:09.886Z,103986.80
2023-02-05T08:02:42.052Z,103988.05
2023-02-05T08:05:11.686Z,103997.20
2023-02-05T08:07:40.974Z,103990.27
2023-02-05T08:10:12.116Z,103995.31
2023-02-05T08:12:41.412Z,103994.86
2023-02-05T08:15:11.356Z,104000.02
2023-02-05T08:17:40.753Z,104001.19
2023-02-05T08:20:11.927Z,104002.42
2023-02-05T08:22:43.405Z,104004.25
2023-02-05T08:25:14.923Z,104005.98
2023-02-05T08:27:46.398Z,104002.66
2023-02-05T08:30:17.420Z,104013.50
2023-02-05T08:32:50.460Z,104011.70
2023-02-05T08:35:20.061Z,104012.53
2023-02-05T08:37:49.642Z,104029.93
2023-02-05T08:40:19.696Z,104025.16
2023-02-05T08:42:50.654Z,104034.25
2023-02-05T08:45:20.845Z,104037.23
2023-02-05T08:47:50.392Z,104041.55
2023-02-05T08:50:21.388Z,104041.02
2023-02-05T08:52:51.292Z,104033.37
2023-02-05T08:55:20.658Z,104037.53
2023-02-05T08:57:49.985Z,104047.36
2023-02-05T09:00:21.056Z,104038.85
2023-02-05T09:02:51.068Z,104043.16
2023-02-05T09:05:20.446Z,104052.34
2023-02-05T09:07:49.850Z,104051.61
2023-02-05T09:10:19.518Z,104035.69
2023-02-05T09:12:49.126Z,104036.56
2023-02-05T09:15:18.580Z,104054.67
2023-02-05T09:17:47.852Z,104063.66
2023-02-05T09:20:17.450Z,104055.02
2023-02-05T09:22:46.651Z,104054.98
2023-02-05T09:25:16.287Z,104057.84
2023-02-05T09:27:45.538Z,104053.73
2023-02-05T09:30:15.570Z,104050.20
2023-02-05T09:32:45.536Z,104055.90
2023-02-05T09:35:15.157Z,104052.25
2023-02-05T09:37:44.443Z,104051.76
2023-02-05T09:40:22.485Z,104051.98
2023-02-05T09:43:03.832Z,104048.19
2023-02-05T09:45:42.269Z,104047.55
2023-02-05T09:48:17.380Z,104046.67
2023-02-05T09:50:46.704Z,104046.99
2023-02-05T09:53:19.069Z,104044.12
2023-02-05T09:55:49.168Z,104054.32
2023-02-05T09:58:24.450Z,104060.59
2023-02-05T10:01:05.401Z,104052.73
2023-02-05T10:03:56.303Z,104060.41
2023-02-05T10:06:34.538Z,104038.56
2023-02-05T10:09:25.413Z,104027.86
2023-02-05T10:12:06.792Z,104040.13
2023-02-05T10:14:47.304Z,104063.66
2023-02-05T10:17:31.745Z,104063.78
2023-02-05T10:20:09.953Z,104076.27
2023-02-05T10:23:05.302Z,104071.60
2023-02-05T10:25:56.468Z,104070.78
2023-02-05T10:29:05.008Z,104063.73
2023-02-05T10:31:37.665Z,104073.00
2023-02-05T10:34:16.214Z,104072.06
2023-02-05T10:36:49.255Z,104081.39
2023-02-05T10:39:21.661Z,104075.00
2023-02-05T10:42:09.192Z,104067.41
2023-02-05T10:44:41.494Z,104069.09
2023-02-05T10:47:16.668Z,104064.85
2023-02-05T10:49:58.481Z,104064.35
2023-02-05T10:52:27.769Z,104059.45
2023-02-05T10:54:57.016Z,104066.91
2023-02-05T10:57:26.728Z,104067.00
2023-02-05T11:00:05.973Z,104077.86
2023-02-05T11:02:40.272Z,104065.42
2023-02-05T11:05:18.882Z,104079.52
2023-02-05T11:07:51.046Z,104093.82
2023-02-05T11:10:43.324Z,104092.84
2023-02-05T11:13:37.759Z,104088.00
2023-02-05T11:16:30.669Z,104092.19
2023-02-05T11:19:02.054Z,104087.14
2023-02-05T11:21:58.624Z,104079.28
2023-02-05T11:24:30.548Z,104084.30
2023-02-05T11:27:18.471Z,104087.83
2023-02-05T11:29:47.780Z,104094.48
2023-02-05T11:32:26.657Z,104094.95
2023-02-05T11:34:59.203Z,104082.98
2023-02-05T11:37:29.091Z,104074.35
2023-02-05T11:39:58.842Z,104075.08
2023-02-05T11:42:28.062Z,104077.19
2023-02-05T11:45:02.342Z,104084.85
2023-02-05T11:47:37.189Z,104076.57
2023-02-05T11:50:09.563Z,104075.95
2023-02-05T11:52:39.530Z,104068.02
2023-02-05T11:55:10.679Z,104069.52
2023-02-05T11:57:42.117Z,104072.52
2023-02-05T12:00:16.398Z,104049.87
2023-02-05T12:02:48.633Z,104068.51
2023-02-05T12:05:21.333Z,104073.67
2023-02-05T12:07:53.224Z,104074.53
2023-02-05T12:10:29.219Z,104054.38
2023-02-05T12:13:22.972Z,104057.61
2023-02-05T12:16:04.069Z,104069.76
2023-02-05T12:18:51.254Z,104061.03
2023-02-05T12:21:41.468Z,104064.27
2023-02-05T12:24:29.593Z,104066.98
2023-02-05T12:27:04.733Z,104067.80
2023-02-05T12:29:54.314Z,104076.69
2023-02-05T12:32:29.659Z,104081.63
2023-02-05T12:35:21.701Z,104076.39
2023-02-05T12:38:21.076Z,104093.50
2023-02-05T12:41:05.102Z,104080.51
2023-02-05T12:43:37.822Z,104094.12
2023-02-05T12:46:13.445Z,104088.88
2023-02-05T12:49:01.903Z,104083.73
2023-02-05T12:51:55.528Z,104085.25
2023-02-05T12:54:36.859Z,104079.72
2023-02-05T12:57:16.056Z,104078.65
2023-02-05T12:59:47.659Z,104080.70
2023-02-05T13:02:26.053Z,104076.13
2023-02-05T13:05:13.721Z,104081.16
2023-02-05T13:07:49.449Z,104077.70
2023-02-05T13:10:22.139Z,104071.67
2023-02-05T13:12:54.763Z,104076.58
2023-02-05T13:15:26.567Z,104073.80
2023-02-05T13:18:17.153Z,104082.50
2023-02-05T13:21:07.579Z,104084.64
2023-02-05T13:23:55.382Z,104095.49
2023-02-05T13:26:48.131Z,104099.20
2023-02-05T13:29:18.935Z,104088.45
2023-02-05T13:31:53.036Z,104088.58
2023-02-05T13:34:23.216Z,104088.89
2023-02-05T13:37:19.460Z,104091.89
2023-02-05T13:40:12.928Z,104090.38
2023-02-05T13:43:06.146Z,104097.94
2023-02-05T13:45:53.324Z,104095.72
2023-02-05T13:48:47.397Z,104098.52
2023-02-05T13:51:37.829Z,104098.97
2023-02-05T13:54:19.500Z,104100.11
2023-02-05T13:57:03.865Z,104112.38
2023-02-05T13:59:39.263Z,104116.08
2023-02-05T14:02:30.212Z,104117.42
2023-02-05T14:05:00.589Z,104119.09
2023-02-05T14:07:39.401Z,104120.05
2023-02-05T14:10:11.661Z,104121.30
2023-02-05T14:12:41.150Z,104129.34
2023-02-05T14:15:20.528Z,104125.77
2023-02-05T14:17:53.244Z,104131.09
2023-02-05T14:20:42.555Z,104126.03
2023-02-05T14:23:21.123Z,104121.15
2023-02-05T14:26:11.567Z,104121.99
2023-02-05T14:28:49.220Z,104125.37
2023-02-05T14:31:41.066Z,104123.30
2023-02-05T14:34:31.734Z,104130.36
2023-02-05T14:37:01.368Z,104133.77
2023-02-05T14:39:38.190Z,104129.27
2023-02-05T14:42:10.994Z,104137.55
2023-02-05T14:44:42.161Z,104136.36
2023-02-05T14:47:22.535Z,104134.33
2023-02-05T14:49:53.122Z,104126.03
2023-02-05T14:52:40.604Z,104124.50
2023-02-05T14:55:20.369Z,104125.55
2023-02-05T14:58:03.287Z,104124.15
2023-02-05T15:00:38.752Z,104134.80
2023-02-05T15:03:20.041Z,104123.56
2023-02-05T15:05:55.759Z,104126.75
2023-02-05T15:08:46.528Z,104131.15
2023-02-05T15:11:52.499Z,104132.87
2023-02-05T15:14:26.574Z,104152.06
2023-02-05T15:17:14.466Z,104157.44
2023-02-05T15:19:46.408Z,104153.20
2023-02-05T15:22:35.152Z,104162.80
2023-02-05T15:25:07.633Z,104154.06
2023-02-05T15:27:49.485Z,104150.83
2023-02-05T15:30:28.548Z,104155.14
2023-02-05T15:33:06.881Z,104153.32
2023-02-05T15:35:39.812Z,104154.30
2023-02-05T15:38:21.296Z,104157.92
2023-02-05T15:40:52.356Z,104162.37
2023-02-05T15:43:27.121Z,104168.55
2023-02-05T15:46:05.342Z,104170.62
2023-02-05T15:48:36.899Z,104170.16
2023-02-05T15:51:29.804Z,104188.48
2023-02-05T15:53:59.299Z,104179.45
2023-02-05T15:56:32.821Z,104191.19
2023-02-05T15:59:08.345Z,104193.54
2023-02-05T16:01:44.952Z,104202.81
2023-02-05T16:04:32.161Z,104208.94
2023-02-05T16:07:02.295Z,104216.80
2023-02-05T16:09:32.595Z,104208.47
2023-02-05T16:12:07.747Z,104216.84
2023-02-05T16:14:37.693Z,104217.36
2023-02-05T16:17:16.113Z,104212.53
2023-02-05T16:19:57.745Z,104211.31
2023-02-05T16:22:42.192Z,104217.92
2023-02-05T16:25:45.961Z,104223.73
2023-02-05T16:28:41.792Z,104230.36
2023-02-05T16:31:16.410Z,104235.20
2023-02-05T16:33:52.272Z,104239.17
2023-02-05T16:36:24.468Z,104240.54
2023-02-05T16:38:59.987Z,104242.80
2023-02-05T16:41:32.460Z,104254.66
2023-02-05T16:44:07.694Z,104249.05
2023-02-05T16:46:37.838Z,104250.92
2023-02-05T16:49:28.702Z,104246.20
2023-02-05T16:51:58.010Z,104253.66
2023-02-05T16:54:38.823Z,104249.86
2023-02-05T16:57:15.944Z,104258.68
2023-02-05T16:59:56.859Z,104253.47
2023-02-05T17:02:29.627Z,104257.75
2023-02-05T17:05:01.488Z,104250.41
2023-02-05T17:07:31.672Z,104254.33
2023-02-05T17:10:19.498Z,104256.17
2023-02-05T17:13:01.436Z,104247.54
2023-02-05T17:15:33.292Z,104251.48
2023-02-05T17:18:06.508Z,104262.39
2023-02-05T17:20:36.575Z,104257.70
2023-02-05T17:23:09.753Z,104262.95
2023-02-05T17:25:55.042Z,104271.63
2023-02-05T17:28:29.904Z,104279.08
2023-02-05T17:30:59.219Z,104283.45
2023-02-05T17:33:29.728Z,104276.91
2023-02-05T17:35:59.518Z,104278.27
2023-02-05T17:38:28.848Z,104281.73
2023-02-05T17:41:16.012Z,104286.56
2023-02-05T17:43:45.774Z,104286.56
2023-02-05T17:46:15.960Z,104293.95
2023-02-05T17:48:45.359Z,104297.45
2023-02-05T17:51:17.785Z,104303.55
2023-02-05T17:53:47.988Z,104304.77
2023-02-05T17:56:19.137Z,104304.72
2023-02-05T17:58:50.135Z,104289.10
2023-02-05T18:01:19.918Z,104306.49
2023-02-05T18:03:49.936Z,104310.00
2023-02-05T18:06:19.894Z,104313.49
2023-02-05T18:08:49.539Z,104307.40
2023-02-05T18:11:18.840Z,104306.96
2023-02-05T18:13:48.152Z,104299.64
2023-02-05T18:16:17.510Z,104307.05
2023-02-05T18:18:47.745Z,104302.25
2023-02-05T18:21:17.610Z,104305.34
2023-02-05T18:23:52.829Z,104300.98
2023-02-05T18:26:22.968Z,104307.13
2023-02-05T18:28:52.223Z,104306.70
2023-02-05T18:31:22.051Z,104304.95
2023-02-05T18:33:52.810Z,104301.47
2023-02-05T18:36:22.675Z,104308.03
2023-02-05T18:38:51.948Z,104314.16
2023-02-05T18:41:26.384Z,104307.63
2023-02-05T18:43:56.971Z,104308.06
2023-02-05T18:46:27.342Z,104312.84
2023-02-05T18:48:56.780Z,104306.77
2023-02-05T18:51:26.512Z,104310.67
2023-02-05T18:53:55.849Z,104308.95
2023-02-05T18:56:27.625Z,104315.47
2023-02-05T18:59:01.185Z,104321.16
2023-02-05T19:01:32.446Z,104321.56
2023-02-05T19:04:07.591Z,104325.92
2023-02-05T19:06:37.015Z,104323.78
2023-02-05T19:09:06.394Z,104322.91
2023-02-05T19:11:38.038Z,104331.61
2023-02-05T19:14:08.044Z,104329.42
2023-02-05T19:16:38.209Z,104338.10
2023-02-05T19:19:08.384Z,104334.19
2023-02-05T19:21:37.923Z,104339.86
2023-02-05T19:24:09.824Z,104345.07
2023-02-05T19:26:42.691Z,104340.73
2023-02-05T19:29:17.165Z,104343.34
2023-02-05T19:31:47.091Z,104338.10
2023-02-05T19:34:16.909Z,104344.63
2023-02-05T19:36:46.286Z,104364.63
2023-02-05T19:39:16.447Z,104359.40
2023-02-05T19:41:45.957Z,104367.20
2023-02-05T19:44:15.598Z,104371.13
2023-02-05T19:46:45.496Z,104365.88
2023-02-05T19:49:17.892Z,104354.55
2023-02-05T19:51:48.612Z,104346.70
2023-02-05T19:54:21.214Z,104343.24
2023-02-05T19:56:50.000Z,104351.47
2023-02-05T19:59:21.256Z,104353.66
2023-02-05T20:01:50.715Z,104368.00
2023-02-05T20:04:25.858Z,104374.05
2023-02-05T20:06:59.761Z,104376.21
2023-02-05T20:09:31.284Z,104370.56
2023-02-05T20:12:01.183Z,104365.75
2023-02-05T20:14:30.700Z,104377.53
2023-02-05T20:16:59.980Z,104380.17
2023-02-05T20:19:29.884Z,104376.28
2023-02-05T20:21:59.231Z,104377.19
2023-02-05T20:24:28.555Z,104370.64
2023-02-05T20:26:58.583Z,104370.25
2023-02-05T20:29:46.036Z,104362.44
2023-02-05T20:32:15.574Z,104365.48
2023-02-05T20:34:47.010Z,104371.14
2023-02-05T20:37:17.584Z,104378.09
2023-02-05T20:39:48.583Z,104381.59
2023-02-05T20:42:18.457Z,104389.41
2023-02-05T20:44:47.895Z,104397.23
2023-02-05T20:47:17.707Z,104405.48
2023-02-05T20:49:47.034Z,104398.54
2023-02-05T20:52:16.558Z,104398.54
2023-02-05T20:54:45.833Z,104401.14
2023-02-05T20:57:15.595Z,104401.14
2023-02-05T20:59:44.846Z,104397.23
2023-02-05T21:02:14.728Z,104404.18
2023-02-05T21:04:44.078Z,104408.52
2023-02-05T21:07:13.870Z,104410.27
2023-02-05T21:09:43.157Z,104422.86
2023-02-05T21:12:12.903Z,104423.31
2023-02-05T21:14:42.239Z,104419.39
2023-02-05T21:17:11.643Z,104411.10
2023-02-05T21:19:41.432Z,104417.59
2023-02-05T21:22:10.884Z,104408.44
2023-02-05T21:24:40.565Z,104398.80
2023-02-05T21:27:09.962Z,104407.86
2023-02-05T21:29:39.800Z,104400.02
2023-02-05T21:32:09.047Z,104406.92
2023-02-05T21:34:38.708Z,104402.97
2023-02-05T21:37:08.077Z,104405.54
2023-02-05T21:39:37.605Z,104404.19
2023-02-05T21:42:07.029Z,104405.92
2023-02-05T21:44:36.301Z,104404.61
2023-02-05T21:47:05.883Z,104403.70
2023-02-05T21:49:35.177Z,104403.69
2023-02-05T21:52:14.076Z,104402.89
2023-02-05T21:54:51.224Z,104399.76
2023-02-05T21:57:23.876Z,104407.02
2023-02-05T21:59:54.098Z,104415.61
2023-02-05T22:02:27.128Z,104414.45
2023-02-05T22:05:12.140Z,104400.52
2023-02-05T22:07:48.104Z,104403.57
2023-02-05T22:10:25.811Z,104401.72
2023-02-05T22:12:57.741Z,104395.70
2023-02-05T22:15:31.402Z,104397.80
2023-02-05T22:18:09.159Z,104395.20
2023-02-05T22:20:41.030Z,104393.48
2023-02-05T22:23:12.662Z,104396.95
2023-02-05T22:25:48.034Z,104393.06
2023-02-05T22:28:25.959Z,104399.56
2023-02-05T22:31:03.700Z,104401.42
2023-02-05T22:33:34.757Z,104403.54
2023-02-05T22:36:05.670Z,104397.45
2023-02-05T22:38:36.783Z,104402.25
2023-02-05T22:41:10.500Z,104400.94
2023-02-05T22:43:40.198Z,104405.74
2023-02-05T22:46:12.538Z,104404.40
2023-02-05T22:48:43.858Z,104419.20
2023-02-05T22:51:15.528Z,104412.78
2023-02-05T22:53:45.044Z,104412.39
2023-02-05T22:56:16.855Z,104409.34
2023-02-05T22:58:47.881Z,104402.03
2023-02-05T23:01:26.144Z,104409.35
2023-02-05T23:03:56.499Z,104407.22
2023-02-05T23:06:28.105Z,104410.22
2023-02-05T23:08:59.472Z,104403.70
2023-02-05T23:11:31.062Z,104408.05
2023-02-05T23:14:01.937Z,104403.70
2023-02-05T23:16:36.995Z,104406.32
2023-02-05T23:19:09.391Z,104395.03
2023-02-05T23:21:40.085Z,104391.53
2023-02-05T23:24:10.195Z,104395.31
2023-02-05T23:26:44.126Z,104402.29
2023-02-05T23:29:15.702Z,104402.27
2023-02-05T23:31:45.493Z,104406.17
2023-02-05T23:34:15.089Z,104409.20
2023-02-05T23:36:44.644Z,104406.22
2023-02-05T23:39:13.964Z,104395.42
2023-02-05T23:41:43.195Z,104400.16
2023-02-05T23:44:20.744Z,104394.18
2023-02-05T23:46:50.993Z,104394.14
2023-02-05T23:49:21.947Z,104394.97
2023-02-05T23:51:53.638Z,104396.77
2023-02-05T23:54:24.009Z,104395.48
2023-02-05T23:56:53.648Z,104397.70
2023-02-05T23:59:23.172Z,104395.97
